sensor_id;sensor_type;location;lat;lon;timestamp;pressure;altitude;pressure_sealevel;temperature;humidity
61786;BME280;47692;53.714;11.372;2023-04-01T00:00:53;99083.06;;;9.04;100.00
61786;BME280;47692;53.714;11.372;2023-04-01T00:03:20;99083.34;;;8.98;100.00
61786;BME280;47692;53.714;11.372;2023-04-01T00:05:45;99083.34;;;8.98;100.00
61786;BME280;47692;53.714;11.372;2023-04-01T00:08:11;99082.50;;;8.98;100.00
61786;BME280;47692;53.714;11.372;2023-04-01T00:10:37;99086.78;;;8.99;100.00
61786;BME280;47692;53.714;11.372;2023-04-01T00:13:02;99081.47;;;9.02;100.00
61786;BME280;47692;53.714;11.372;2023-04-01T00:15:28;99087.44;;;9.04;100.00
61786;BME280;47692;53.714;11.372;2023-04-01T00:17:53;99087.72;;;8.98;100.00
61786;BME280;47692;53.714;11.372;2023-04-01T00:20:19;99088.69;;;8.95;100.00
61786;BME280;47692;53.714;11.372;2023-04-01T00:22:45;99083.47;;;8.95;100.00
61786;BME280;47692;53.714;11.372;2023-04-01T00:25:10;99083.75;;;8.89;100.00
61786;BME280;47692;53.714;11.372;2023-04-01T00:27:35;99082.28;;;8.82;100.00
61786;BME280;47692;53.714;11.372;2023-04-01T00:30:01;99081.56;;;8.78;100.00
61786;BME280;47692;53.714;11.372;2023-04-01T00:32:26;99084.97;;;8.80;100.00
61786;BME280;47692;53.714;11.372;2023-04-01T00:34:52;99088.41;;;8.81;100.00
61786;BME280;47692;53.714;11.372;2023-04-01T00:37:18;99089.38;;;8.78;100.00
61786;BME280;47692;53.714;11.372;2023-04-01T00:39:44;99082.56;;;8.76;100.00
61786;BME280;47692;53.714;11.372;2023-04-01T00:42:11;99089.19;;;8.83;100.00
61786;BME280;47692;53.714;11.372;2023-04-01T00:44:38;99087.56;;;8.80;100.00
61786;BME280;47692;53.714;11.372;2023-04-01T00:47:04;99090.34;;;8.76;100.00
61786;BME280;47692;53.714;11.372;2023-04-01T00:49:34;99090.28;;;8.77;100.00
61786;BME280;47692;53.714;11.372;2023-04-01T00:52:02;99087.75;;;8.76;100.00
61786;BME280;47692;53.714;11.372;2023-04-01T00:54:30;99086.72;;;8.80;100.00
61786;BME280;47692;53.714;11.372;2023-04-01T00:57:00;99088.66;;;8.75;100.00
61786;BME280;47692;53.714;11.372;2023-04-01T00:59:30;99088.59;;;8.76;100.00
61786;BME280;47692;53.714;11.372;2023-04-01T01:01:57;99085.00;;;8.79;100.00
61786;BME280;47692;53.714;11.372;2023-04-01T01:04:27;99089.38;;;8.78;100.00
61786;BME280;47692;53.714;11.372;2023-04-01T01:08:20;99083.53;;;8.73;100.00
61786;BME280;47692;53.714;11.372;2023-04-01T01:10:15;99086.13;;;8.73;100.00
61786;BME280;47692;53.714;11.372;2023-04-01T01:12:54;99091.66;;;8.65;100.00
61786;BME280;47692;53.714;11.372;2023-04-01T01:15:26;99097.63;;;8.67;100.00
61786;BME280;47692;53.714;11.372;2023-04-01T01:26:46;99099.34;;;8.00;100.00
61786;BME280;47692;53.714;11.372;2023-04-01T01:31:58;99101.97;;;7.76;100.00
61786;BME280;47692;53.714;11.372;2023-04-01T01:34:35;99109.19;;;7.68;100.00
61786;BME280;47692;53.714;11.372;2023-04-01T01:37:12;99111.50;;;7.52;100.00
61786;BME280;47692;53.714;11.372;2023-04-01T01:39:39;99115.16;;;7.47;100.00
61786;BME280;47692;53.714;11.372;2023-04-01T01:42:09;99115.38;;;7.40;100.00
61786;BME280;47692;53.714;11.372;2023-04-01T01:44:37;99117.28;;;7.35;100.00
61786;BME280;47692;53.714;11.372;2023-04-01T01:47:05;99121.81;;;7.30;100.00
61786;BME280;47692;53.714;11.372;2023-04-01T01:49:32;99124.59;;;7.24;100.00
61786;BME280;47692;53.714;11.372;2023-04-01T01:51:59;99128.41;;;7.14;100.00
61786;BME280;47692;53.714;11.372;2023-04-01T01:54:24;99124.22;;;7.09;100.00
61786;BME280;47692;53.714;11.372;2023-04-01T01:56:52;99128.50;;;7.10;100.00
61786;BME280;47692;53.714;11.372;2023-04-01T01:59:22;99124.38;;;7.05;100.00
61786;BME280;47692;53.714;11.372;2023-04-01T02:01:51;99125.13;;;7.08;100.00
61786;BME280;47692;53.714;11.372;2023-04-01T02:04:19;99133.03;;;7.05;100.00
61786;BME280;47692;53.714;11.372;2023-04-01T02:07:02;99127.22;;;6.97;100.00
61786;BME280;47692;53.714;11.372;2023-04-01T02:09:29;99129.88;;;6.95;100.00
61786;BME280;47692;53.714;11.372;2023-04-01T02:12:01;99131.59;;;6.97;100.00
61786;BME280;47692;53.714;11.372;2023-04-01T02:17:07;99134.53;;;6.86;100.00
61786;BME280;47692;53.714;11.372;2023-04-01T02:19:47;99132.94;;;6.82;100.00
61786;BME280;47692;53.714;11.372;2023-04-01T02:22:18;99136.31;;;6.84;100.00
61786;BME280;47692;53.714;11.372;2023-04-01T02:24:45;99138.25;;;6.77;100.00
61786;BME280;47692;53.714;11.372;2023-04-01T02:27:11;99137.56;;;6.72;100.00
61786;BME280;47692;53.714;11.372;2023-04-01T02:29:37;99149.66;;;6.73;100.00
61786;BME280;47692;53.714;11.372;2023-04-01T02:32:04;99156.72;;;6.68;100.00
61786;BME280;47692;53.714;11.372;2023-04-01T02:34:31;99155.34;;;6.56;100.00
61786;BME280;47692;53.714;11.372;2023-04-01T02:36:57;99153.72;;;6.53;100.00
61786;BME280;47692;53.714;11.372;2023-04-01T02:39:23;99164.03;;;6.55;100.00
61786;BME280;47692;53.714;11.372;2023-04-01T02:41:50;99158.13;;;6.50;100.00
61786;BME280;47692;53.714;11.372;2023-04-01T02:44:15;99169.31;;;6.52;100.00
61786;BME280;47692;53.714;11.372;2023-04-01T02:46:41;99165.22;;;6.44;100.00
61786;BME280;47692;53.714;11.372;2023-04-01T02:49:06;99169.78;;;6.36;100.00
61786;BME280;47692;53.714;11.372;2023-04-01T02:51:33;99179.38;;;6.34;100.00
61786;BME280;47692;53.714;11.372;2023-04-01T02:53:58;99175.97;;;6.32;100.00
61786;BME280;47692;53.714;11.372;2023-04-01T02:56:24;99181.22;;;6.29;100.00
61786;BME280;47692;53.714;11.372;2023-04-01T02:58:49;99179.63;;;6.25;100.00
61786;BME280;47692;53.714;11.372;2023-04-01T03:01:15;99191.88;;;6.20;100.00
61786;BME280;47692;53.714;11.372;2023-04-01T03:03:41;99188.63;;;6.11;100.00
61786;BME280;47692;53.714;11.372;2023-04-01T03:06:11;99183.75;;;6.02;100.00
61786;BME280;47692;53.714;11.372;2023-04-01T03:08:37;99196.78;;;5.97;100.00
61786;BME280;47692;53.714;11.372;2023-04-01T03:11:03;99191.78;;;5.91;100.00
61786;BME280;47692;53.714;11.372;2023-04-01T03:13:28;99193.69;;;5.85;100.00
61786;BME280;47692;53.714;11.372;2023-04-01T03:15:54;99195.53;;;5.81;100.00
61786;BME280;47692;53.714;11.372;2023-04-01T03:18:19;99198.94;;;5.81;100.00
61786;BME280;47692;53.714;11.372;2023-04-01T03:20:45;99200.91;;;5.73;100.00
61786;BME280;47692;53.714;11.372;2023-04-01T03:23:11;99201.81;;;5.72;100.00
61786;BME280;47692;53.714;11.372;2023-04-01T03:25:36;99202.75;;;5.68;100.00
61786;BME280;47692;53.714;11.372;2023-04-01T03:28:02;99208.84;;;5.67;100.00
61786;BME280;47692;53.714;11.372;2023-04-01T03:30:27;99211.50;;;5.64;100.00
61786;BME280;47692;53.714;11.372;2023-04-01T03:32:55;99210.78;;;5.59;100.00
61786;BME280;47692;53.714;11.372;2023-04-01T03:35:20;99207.38;;;5.57;100.00
61786;BME280;47692;53.714;11.372;2023-04-01T03:37:45;99211.88;;;5.50;100.00
61786;BME280;47692;53.714;11.372;2023-04-01T03:40:11;99209.41;;;5.45;100.00
61786;BME280;47692;53.714;11.372;2023-04-01T03:42:36;99215.50;;;5.43;100.00
61786;BME280;47692;53.714;11.372;2023-04-01T03:45:03;99216.47;;;5.39;100.00
61786;BME280;47692;53.714;11.372;2023-04-01T03:47:29;99221.72;;;5.37;100.00
61786;BME280;47692;53.714;11.372;2023-04-01T03:49:54;99225.19;;;5.34;100.00
61786;BME280;47692;53.714;11.372;2023-04-01T03:52:19;99222.59;;;5.34;100.00
61786;BME280;47692;53.714;11.372;2023-04-01T03:54:45;99227.03;;;5.29;100.00
61786;BME280;47692;53.714;11.372;2023-04-01T03:57:10;99237.44;;;5.28;100.00
61786;BME280;47692;53.714;11.372;2023-04-01T03:59:36;99240.84;;;5.30;100.00
61786;BME280;47692;53.714;11.372;2023-04-01T04:02:01;99242.56;;;5.31;100.00
61786;BME280;47692;53.714;11.372;2023-04-01T04:04:27;99237.56;;;5.23;100.00
61786;BME280;47692;53.714;11.372;2023-04-01T04:06:52;99242.63;;;5.28;100.00
61786;BME280;47692;53.714;11.372;2023-04-01T04:09:17;99243.56;;;5.25;100.00
61786;BME280;47692;53.714;11.372;2023-04-01T04:11:43;99247.03;;;5.24;100.00
61786;BME280;47692;53.714;11.372;2023-04-01T04:14:08;99248.81;;;5.22;100.00
61786;BME280;47692;53.714;11.372;2023-04-01T04:16:35;99263.41;;;5.25;100.00
61786;BME280;47692;53.714;11.372;2023-04-01T04:19:02;99262.66;;;5.20;100.00
61786;BME280;47692;53.714;11.372;2023-04-01T04:21:27;99265.38;;;5.13;100.00
61786;BME280;47692;53.714;11.372;2023-04-01T04:23:53;99269.03;;;5.06;100.00
61786;BME280;47692;53.714;11.372;2023-04-01T04:26:18;99273.28;;;5.07;100.00
61786;BME280;47692;53.714;11.372;2023-04-01T04:28:43;99272.69;;;4.96;100.00
61786;BME280;47692;53.714;11.372;2023-04-01T04:31:09;99271.00;;;4.95;100.00
61786;BME280;47692;53.714;11.372;2023-04-01T04:33:34;99282.25;;;4.94;100.00
61786;BME280;47692;53.714;11.372;2023-04-01T04:36:00;99290.06;;;4.91;100.00
61786;BME280;47692;53.714;11.372;2023-04-01T04:38:26;99283.22;;;4.88;100.00
61786;BME280;47692;53.714;11.372;2023-04-01T04:40:52;99284.97;;;4.88;100.00
61786;BME280;47692;53.714;11.372;2023-04-01T04:43:18;99286.72;;;4.85;100.00
61786;BME280;47692;53.714;11.372;2023-04-01T04:45:44;99290.28;;;4.81;100.00
61786;BME280;47692;53.714;11.372;2023-04-01T04:48:12;99301.44;;;4.82;100.00
61786;BME280;47692;53.714;11.372;2023-04-01T04:50:41;99298.00;;;4.83;100.00
61786;BME280;47692;53.714;11.372;2023-04-01T04:53:09;99293.66;;;4.83;100.00
61786;BME280;47692;53.714;11.372;2023-04-01T04:55:35;99308.38;;;4.80;100.00
61786;BME280;47692;53.714;11.372;2023-04-01T04:58:00;99305.03;;;4.76;100.00
61786;BME280;47692;53.714;11.372;2023-04-01T05:00:25;99309.44;;;4.71;100.00
61786;BME280;47692;53.714;11.372;2023-04-01T05:02:51;99306.09;;;4.66;100.00
61786;BME280;47692;53.714;11.372;2023-04-01T05:05:16;99312.16;;;4.65;100.00
61786;BME280;47692;53.714;11.372;2023-04-01T05:07:42;99316.56;;;4.60;100.00
61786;BME280;47692;53.714;11.372;2023-04-01T05:10:07;99326.97;;;4.57;100.00
61786;BME280;47692;53.714;11.372;2023-04-01T05:12:33;99325.25;;;4.57;100.00
61786;BME280;47692;53.714;11.372;2023-04-01T05:15:07;99323.56;;;4.55;100.00
61786;BME280;47692;53.714;11.372;2023-04-01T05:17:32;99327.03;;;4.53;100.00
61786;BME280;47692;53.714;11.372;2023-04-01T05:19:58;99332.19;;;4.53;100.00
61786;BME280;47692;53.714;11.372;2023-04-01T05:22:23;99330.47;;;4.54;100.00
61786;BME280;47692;53.714;11.372;2023-04-01T05:24:49;99334.03;;;4.48;100.00
61786;BME280;47692;53.714;11.372;2023-04-01T05:27:14;99329.72;;;4.49;100.00
61786;BME280;47692;53.714;11.372;2023-04-01T05:29:40;99340.97;;;4.46;100.00
61786;BME280;47692;53.714;11.372;2023-04-01T05:32:05;99346.19;;;4.43;100.00
61786;BME280;47692;53.714;11.372;2023-04-01T05:34:31;99347.03;;;4.44;100.00
61786;BME280;47692;53.714;11.372;2023-04-01T05:36:56;99354.75;;;4.47;100.00
61786;BME280;47692;53.714;11.372;2023-04-01T05:39:22;99354.78;;;4.45;100.00
61786;BME280;47692;53.714;11.372;2023-04-01T05:41:48;99358.25;;;4.44;100.00
61786;BME280;47692;53.714;11.372;2023-04-01T05:44:14;99359.94;;;4.45;100.00
61786;BME280;47692;53.714;11.372;2023-04-01T05:46:39;99366.88;;;4.43;100.00
61786;BME280;47692;53.714;11.372;2023-04-01T05:49:04;99368.75;;;4.35;100.00
61786;BME280;47692;53.714;11.372;2023-04-01T05:51:30;99365.28;;;4.36;100.00
61786;BME280;47692;53.714;11.372;2023-04-01T05:53:55;99367.06;;;4.34;100.00
61786;BME280;47692;53.714;11.372;2023-04-01T05:56:20;99363.59;;;4.33;100.00
61786;BME280;47692;53.714;11.372;2023-04-01T05:58:51;99368.84;;;4.29;100.00
61786;BME280;47692;53.714;11.372;2023-04-01T06:01:18;99369.75;;;4.26;100.00
61786;BME280;47692;53.714;11.372;2023-04-01T06:03:44;99379.19;;;4.29;100.00
61786;BME280;47692;53.714;11.372;2023-04-01T06:06:13;99380.09;;;4.26;100.00
61786;BME280;47692;53.714;11.372;2023-04-01T06:08:40;99380.16;;;4.23;100.00
61786;BME280;47692;53.714;11.372;2023-04-01T06:11:34;99387.03;;;4.23;100.00
61786;BME280;47692;53.714;11.372;2023-04-01T06:14:35;99386.19;;;4.24;100.00
61786;BME280;47692;53.714;11.372;2023-04-01T06:19:51;99394.88;;;4.19;100.00
61786;BME280;47692;53.714;11.372;2023-04-01T06:30:24;99397.44;;;4.19;100.00
61786;BME280;47692;53.714;11.372;2023-04-01T06:44:07;99413.91;;;4.15;100.00
61786;BME280;47692;53.714;11.372;2023-04-01T06:54:17;99437.94;;;4.17;100.00
61786;BME280;47692;53.714;11.372;2023-04-01T06:56:45;99436.25;;;4.16;100.00
61786;BME280;47692;53.714;11.372;2023-04-01T06:59:25;99439.69;;;4.17;100.00
61786;BME280;47692;53.714;11.372;2023-04-01T07:02:05;99443.19;;;4.14;100.00
61786;BME280;47692;53.714;11.372;2023-04-01T07:04:43;99455.16;;;4.18;100.00
61786;BME280;47692;53.714;11.372;2023-04-01T07:07:28;99455.13;;;4.22;100.00
61786;BME280;47692;53.714;11.372;2023-04-01T07:09:57;99454.16;;;4.27;100.00
61786;BME280;47692;53.714;11.372;2023-04-01T07:15:02;99453.31;;;4.27;100.00
61786;BME280;47692;53.714;11.372;2023-04-01T07:17:33;99460.13;;;4.31;100.00
61786;BME280;47692;53.714;11.372;2023-04-01T07:20:23;99465.31;;;4.29;100.00
61786;BME280;47692;53.714;11.372;2023-04-01T07:22:54;99474.75;;;4.32;100.00
61786;BME280;47692;53.714;11.372;2023-04-01T07:25:25;99477.28;;;4.35;100.00
61786;BME280;47692;53.714;11.372;2023-04-01T07:27:53;99471.25;;;4.34;100.00
61786;BME280;47692;53.714;11.372;2023-04-01T07:30:22;99475.63;;;4.31;100.00
61786;BME280;47692;53.714;11.372;2023-04-01T07:33:02;99484.31;;;4.27;100.00
61786;BME280;47692;53.714;11.372;2023-04-01T07:46:43;99504.72;;;4.42;100.00
61786;BME280;47692;53.714;11.372;2023-04-01T07:49:16;99504.72;;;4.42;100.00
61786;BME280;47692;53.714;11.372;2023-04-01T07:54:37;99522.81;;;4.42;100.00
61786;BME280;47692;53.714;11.372;2023-04-01T07:57:22;99522.88;;;4.39;100.00
61786;BME280;47692;53.714;11.372;2023-04-01T08:03:05;99526.38;;;4.36;100.00
61786;BME280;47692;53.714;11.372;2023-04-01T08:05:45;99527.19;;;4.40;100.00
61786;BME280;47692;53.714;11.372;2023-04-01T08:10:57;99539.25;;;4.38;100.00
61786;BME280;47692;53.714;11.372;2023-04-01T08:13:39;99543.59;;;4.36;100.00
61786;BME280;47692;53.714;11.372;2023-04-01T08:21:25;99556.47;;;4.39;100.00
61786;BME280;47692;53.714;11.372;2023-04-01T08:23:56;99559.84;;;4.44;100.00
61786;BME280;47692;53.714;11.372;2023-04-01T08:29:00;99566.66;;;4.48;100.00
61786;BME280;47692;53.714;11.372;2023-04-01T08:34:00;99564.94;;;4.47;100.00
61786;BME280;47692;53.714;11.372;2023-04-01T08:36:36;99575.25;;;4.50;100.00
61786;BME280;47692;53.714;11.372;2023-04-01T08:39:06;99571.78;;;4.51;100.00
61786;BME280;47692;53.714;11.372;2023-04-01T08:42:00;99576.91;;;4.53;100.00
61786;BME280;47692;53.714;11.372;2023-04-01T08:52:35;99589.81;;;4.55;100.00
61786;BME280;47692;53.714;11.372;2023-04-01T09:03:43;99612.09;;;4.62;100.00
61786;BME280;47692;53.714;11.372;2023-04-01T09:06:28;99604.28;;;4.65;100.00
61786;BME280;47692;53.714;11.372;2023-04-01T09:09:27;99601.75;;;4.63;100.00
61786;BME280;47692;53.714;11.372;2023-04-01T09:15:16;99615.53;;;4.64;100.00
61786;BME280;47692;53.714;11.372;2023-04-01T09:41:11;99653.47;;;4.62;100.00
61786;BME280;47692;53.714;11.372;2023-04-01T09:48:51;99668.25;;;4.53;100.00
61786;BME280;47692;53.714;11.372;2023-04-01T09:51:38;99668.25;;;4.53;100.00
61786;BME280;47692;53.714;11.372;2023-04-01T09:57:30;99672.56;;;4.53;100.00
61786;BME280;47692;53.714;11.372;2023-04-01T10:03:13;99682.31;;;4.34;100.00
61786;BME280;47692;53.714;11.372;2023-04-01T10:08:46;99689.16;;;4.38;100.00
61786;BME280;47692;53.714;11.372;2023-04-01T10:17:07;99696.88;;;4.40;100.00
61786;BME280;47692;53.714;11.372;2023-04-01T10:19:55;99703.00;;;4.34;100.00
61786;BME280;47692;53.714;11.372;2023-04-01T10:31:04;99715.00;;;4.38;100.00
61786;BME280;47692;53.714;11.372;2023-04-01T10:36:54;99720.25;;;4.32;100.00
61786;BME280;47692;53.714;11.372;2023-04-01T10:58:33;99747.81;;;4.30;100.00
61786;BME280;47692;53.714;11.372;2023-04-01T11:01:29;99750.50;;;4.22;100.00
61786;BME280;47692;53.714;11.372;2023-04-01T11:21:18;99778.97;;;4.20;100.00
61786;BME280;47692;53.714;11.372;2023-04-01T11:32:24;99784.25;;;4.08;100.00
61786;BME280;47692;53.714;11.372;2023-04-01T11:38:07;99805.75;;;4.09;100.00
61786;BME280;47692;53.714;11.372;2023-04-01T11:40:42;99804.94;;;4.07;100.00
61786;BME280;47692;53.714;11.372;2023-04-01T11:43:34;99805.75;;;4.09;100.00
61786;BME280;47692;53.714;11.372;2023-04-01T11:46:12;99812.69;;;4.07;100.00
61786;BME280;47692;53.714;11.372;2023-04-01T11:49:07;99820.50;;;4.02;100.00
61786;BME280;47692;53.714;11.372;2023-04-01T11:54:48;99813.59;;;4.01;100.00
61786;BME280;47692;53.714;11.372;2023-04-01T12:03:17;99829.97;;;4.00;100.00
61786;BME280;47692;53.714;11.372;2023-04-01T12:11:53;99836.00;;;3.99;100.00
61786;BME280;47692;53.714;11.372;2023-04-01T12:22:07;99863.38;;;4.18;100.00
61786;BME280;47692;53.714;11.372;2023-04-01T12:24:58;99864.25;;;4.16;100.00
61786;BME280;47692;53.714;11.372;2023-04-01T12:27:45;99884.09;;;4.12;100.00
61786;BME280;47692;53.714;11.372;2023-04-01T12:40:51;99882.44;;;4.05;100.00
61786;BME280;47692;53.714;11.372;2023-04-01T13:16:56;99935.91;;;3.97;100.00
61786;BME280;47692;53.714;11.372;2023-04-01T13:19:35;99941.06;;;3.95;100.00
61786;BME280;47692;53.714;11.372;2023-04-01T13:22:17;99946.22;;;3.98;100.00
61786;BME280;47692;53.714;11.372;2023-04-01T13:27:22;99953.03;;;4.04;100.00
61786;BME280;47692;53.714;11.372;2023-04-01T13:36:03;99975.50;;;4.00;100.00
61786;BME280;47692;53.714;11.372;2023-04-01T13:38:42;99972.97;;;3.94;100.00
61786;BME280;47692;53.714;11.372;2023-04-01T13:43:48;99972.13;;;3.87;100.00
61786;BME280;47692;53.714;11.372;2023-04-01T13:49:15;99997.97;;;3.86;100.00
61786;BME280;47692;53.714;11.372;2023-04-01T14:00:32;100011.81;;;3.74;100.00
61786;BME280;47692;53.714;11.372;2023-04-01T14:05:52;100012.69;;;3.73;100.00
61786;BME280;47692;53.714;11.372;2023-04-01T14:14:33;100029.06;;;3.63;100.00
61786;BME280;47692;53.714;11.372;2023-04-01T14:17:23;100024.78;;;3.63;100.00
61786;BME280;47692;53.714;11.372;2023-04-01T14:20:29;100034.25;;;3.63;100.00
61786;BME280;47692;53.714;11.372;2023-04-01T14:33:31;100052.34;;;3.60;100.00
61786;BME280;47692;53.714;11.372;2023-04-01T14:36:25;100059.22;;;3.58;100.00
61786;BME280;47692;53.714;11.372;2023-04-01T14:39:15;100062.69;;;3.58;100.00
61786;BME280;47692;53.714;11.372;2023-04-01T14:47:50;100069.56;;;3.61;100.00
61786;BME280;47692;53.714;11.372;2023-04-01T14:50:29;100068.69;;;3.60;100.00
61786;BME280;47692;53.714;11.372;2023-04-01T14:55:44;100079.88;;;3.58;100.00
61786;BME280;47692;53.714;11.372;2023-04-01T14:58:17;100083.34;;;3.53;100.00
61786;BME280;47692;53.714;11.372;2023-04-01T15:00:55;100091.91;;;3.59;100.00
61786;BME280;47692;53.714;11.372;2023-04-01T15:03:32;100095.38;;;3.56;100.00
61786;BME280;47692;53.714;11.372;2023-04-01T15:06:27;100097.13;;;3.51;100.00
61786;BME280;47692;53.714;11.372;2023-04-01T15:18:09;100114.38;;;3.39;100.00
61786;BME280;47692;53.714;11.372;2023-04-01T15:20:56;100118.69;;;3.36;100.00
61786;BME280;47692;53.714;11.372;2023-04-01T15:23:39;100116.94;;;3.35;100.00
61786;BME280;47692;53.714;11.372;2023-04-01T15:31:52;100141.06;;;3.31;100.00
61786;BME280;47692;53.714;11.372;2023-04-01T15:37:04;100151.38;;;3.25;100.00
61786;BME280;47692;53.714;11.372;2023-04-01T15:59:10;100176.34;;;3.10;100.00
61786;BME280;47692;53.714;11.372;2023-04-01T16:02:17;100178.91;;;3.10;100.00
61786;BME280;47692;53.714;11.372;2023-04-01T16:05:00;100184.06;;;3.04;100.00
61786;BME280;47692;53.714;11.372;2023-04-01T16:10:25;100200.41;;;3.01;100.00
61786;BME280;47692;53.714;11.372;2023-04-01T16:16:04;100211.56;;;3.02;100.00
61786;BME280;47692;53.714;11.372;2023-04-01T16:18:42;100208.13;;;3.03;100.00
61786;BME280;47692;53.714;11.372;2023-04-01T16:21:27;100216.72;;;3.02;100.00
61786;BME280;47692;53.714;11.372;2023-04-01T16:24:10;100226.19;;;3.04;100.00
61786;BME280;47692;53.714;11.372;2023-04-01T16:26:48;100233.94;;;3.06;100.00
61786;BME280;47692;53.714;11.372;2023-04-01T16:37:11;100252.84;;;3.02;100.00
61786;BME280;47692;53.714;11.372;2023-04-01T16:42:58;100251.13;;;3.01;100.00
61786;BME280;47692;53.714;11.372;2023-04-01T16:45:19;100258.00;;;2.94;100.00
61786;BME280;47692;53.714;11.372;2023-04-01T16:48:07;100271.75;;;2.88;100.00
61786;BME280;47692;53.714;11.372;2023-04-01T16:53:42;100276.03;;;2.83;100.00
61786;BME280;47692;53.714;11.372;2023-04-01T16:56:22;100287.22;;;2.82;100.00
61786;BME280;47692;53.714;11.372;2023-04-01T17:04:06;100300.97;;;2.81;100.00
61786;BME280;47692;53.714;11.372;2023-04-01T17:06:50;100306.97;;;2.80;100.00
61786;BME280;47692;53.714;11.372;2023-04-01T17:12:25;100318.13;;;2.73;100.00
61786;BME280;47692;53.714;11.372;2023-04-01T17:23:34;100345.59;;;2.68;100.00
61786;BME280;47692;53.714;11.372;2023-04-01T17:29:17;100361.06;;;2.68;100.00
61786;BME280;47692;53.714;11.372;2023-04-01T17:34:41;100371.38;;;2.68;100.00
61786;BME280;47692;53.714;11.372;2023-04-01T17:40:34;100377.34;;;2.56;100.00
61786;BME280;47692;53.714;11.372;2023-04-01T17:45:46;100390.19;;;2.50;100.00
61786;BME280;47692;53.714;11.372;2023-04-01T17:56:52;100414.22;;;2.44;97.68
61786;BME280;47692;53.714;11.372;2023-04-01T17:59:47;100426.22;;;2.42;97.33
61786;BME280;47692;53.714;11.372;2023-04-01T18:08:26;100441.72;;;2.47;97.85
61786;BME280;47692;53.714;11.372;2023-04-01T18:18:50;100474.28;;;2.37;94.42
61786;BME280;47692;53.714;11.372;2023-04-01T18:24:14;100473.41;;;2.35;94.35
61786;BME280;47692;53.714;11.372;2023-04-01T18:26:44;100482.88;;;2.34;94.37
61786;BME280;47692;53.714;11.372;2023-04-01T18:32:38;100495.75;;;2.33;94.56
61786;BME280;47692;53.714;11.372;2023-04-01T18:35:47;100502.59;;;2.31;94.69
61786;BME280;47692;53.714;11.372;2023-04-01T18:38:20;100504.31;;;2.30;94.92
61786;BME280;47692;53.714;11.372;2023-04-01T18:41:19;100513.75;;;2.26;94.71
61786;BME280;47692;53.714;11.372;2023-04-01T18:43:48;100520.63;;;2.31;95.05
61786;BME280;47692;53.714;11.372;2023-04-01T18:49:21;100532.63;;;2.29;95.04
61786;BME280;47692;53.714;11.372;2023-04-01T18:51:55;100539.50;;;2.30;95.40
61786;BME280;47692;53.714;11.372;2023-04-01T18:57:55;100548.06;;;2.25;94.05
61786;BME280;47692;53.714;11.372;2023-04-01T19:00:41;100554.84;;;2.14;92.02
61786;BME280;47692;53.714;11.372;2023-04-01T19:03:22;100553.06;;;2.07;91.19
61786;BME280;47692;53.714;11.372;2023-04-01T19:05:53;100558.16;;;2.04;91.37
61786;BME280;47692;53.714;11.372;2023-04-01T19:08:34;100566.72;;;2.00;91.90
61786;BME280;47692;53.714;11.372;2023-04-01T19:11:19;100568.38;;;1.94;91.88
61786;BME280;47692;53.714;11.372;2023-04-01T19:22:25;100604.38;;;1.91;92.96
61786;BME280;47692;53.714;11.372;2023-04-01T19:27:48;100604.31;;;1.85;89.16
61786;BME280;47692;53.714;11.372;2023-04-01T19:30:36;100600.81;;;1.77;87.18
61786;BME280;47692;53.714;11.372;2023-04-01T19:33:28;100604.16;;;1.70;87.54
61786;BME280;47692;53.714;11.372;2023-04-01T19:36:21;100614.44;;;1.70;87.51
61786;BME280;47692;53.714;11.372;2023-04-01T19:38:55;100624.72;;;1.67;87.53
61786;BME280;47692;53.714;11.372;2023-04-01T19:44:19;100629.81;;;1.64;88.25
61786;BME280;47692;53.714;11.372;2023-04-01T19:52:05;100638.28;;;1.53;88.23
61786;BME280;47692;53.714;11.372;2023-04-01T20:00:28;100656.19;;;1.45;88.67
61786;BME280;47692;53.714;11.372;2023-04-01T20:08:42;100678.47;;;1.47;90.43
61786;BME280;47692;53.714;11.372;2023-04-01T20:11:30;100677.56;;;1.43;90.66
61786;BME280;47692;53.714;11.372;2023-04-01T20:17:00;100681.00;;;1.42;91.20
61786;BME280;47692;53.714;11.372;2023-04-01T20:19:29;100689.59;;;1.44;90.75
61786;BME280;47692;53.714;11.372;2023-04-01T20:21:59;100698.22;;;1.46;90.10
61786;BME280;47692;53.714;11.372;2023-04-01T20:24:45;100705.94;;;1.46;89.78
61786;BME280;47692;53.714;11.372;2023-04-01T20:41:25;100728.94;;;1.37;89.73
61786;BME280;47692;53.714;11.372;2023-04-01T20:44:03;100723.78;;;1.35;89.47
61786;BME280;47692;53.714;11.372;2023-04-01T20:57:27;100738.28;;;1.32;89.80
61786;BME280;47692;53.714;11.372;2023-04-01T21:28:26;100779.69;;;0.93;90.45
61786;BME280;47692;53.714;11.372;2023-04-01T22:09:12;100846.09;;;0.72;92.01
61786;BME280;47692;53.714;11.372;2023-04-01T22:14:19;100852.06;;;0.69;92.07
61786;BME280;47692;53.714;11.372;2023-04-01T22:17:52;100853.69;;;0.66;91.13
61786;BME280;47692;53.714;11.372;2023-04-01T22:23:06;100856.13;;;0.59;92.07
61786;BME280;47692;53.714;11.372;2023-04-01T22:29:03;100871.38;;;0.50;92.69
61786;BME280;47692;53.714;11.372;2023-04-01T22:31:46;100876.38;;;0.44;92.41
61786;BME280;47692;53.714;11.372;2023-04-01T22:34:40;100880.59;;;0.40;93.10
61786;BME280;47692;53.714;11.372;2023-04-01T22:37:32;100879.66;;;0.37;93.42
61786;BME280;47692;53.714;11.372;2023-04-01T22:40:27;100889.13;;;0.39;94.03
61786;BME280;47692;53.714;11.372;2023-04-01T22:43:10;100898.59;;;0.42;94.96
61786;BME280;47692;53.714;11.372;2023-04-01T22:45:47;100905.53;;;0.46;95.18
61786;BME280;47692;53.714;11.372;2023-04-01T22:48:39;100901.38;;;0.51;95.89
61786;BME280;47692;53.714;11.372;2023-04-01T22:51:31;100909.13;;;0.54;94.92